Time;durP1;ratioP1;P1;durP2;ratioP2;P2;SDS_P1;SDS_P2;PMS_P1;PMS_P2;Temp;Humidity;BMP_temperature;BMP_pressure;BME280_temperature;BME280_humidity;BME280_pressure;Samples;Min_cycle;Max_cycle;Signal;HPM_P1;HPM_P2
2023/04/19 00:02:24;;;;;;;0.32;0.32;;;;;;;7.55;100.00;98270.69;5020718;28;20092;-72
2023/04/19 00:04:54;;;;;;;0.10;0.10;;;;;;;7.49;100.00;98263.34;5024012;28;20500;-70
2023/04/19 00:07:22;;;;;;;0.43;0.43;;;;;;;7.61;100.00;98267.38;5023948;28;20042;-70
2023/04/19 00:09:49;;;;;;;0.28;0.28;;;;;;;7.63;100.00;98258.28;5028780;28;20050;-70
2023/04/19 00:12:17;;;;;;;0.30;0.30;;;;;;;7.58;100.00;98257.09;5021027;28;20088;-70
2023/04/19 00:14:44;;;;;;;0.32;0.32;;;;;;;7.60;100.00;98250.63;5022500;28;20037;-70
2023/04/19 00:17:13;;;;;;;0.20;0.20;;;;;;;7.55;100.00;98254.75;5032544;28;20059;-70
2023/04/19 00:19:41;;;;;;;0.10;0.10;;;;;;;7.58;100.00;98249.94;5025436;28;20544;-70
2023/04/19 00:22:09;;;;;;;0.20;0.20;;;;;;;7.57;100.00;98253.63;5027245;28;20378;-70
2023/04/19 00:24:36;;;;;;;0.22;0.22;;;;;;;7.61;100.00;98244.31;5029729;28;20137;-70
2023/04/19 00:27:04;;;;;;;0.32;0.32;;;;;;;7.61;100.00;98244.31;5029366;28;20041;-70
2023/04/19 00:29:32;;;;;;;0.10;0.10;;;;;;;7.57;100.00;98237.66;5022237;28;20045;-69
2023/04/19 00:31:59;;;;;;;0.13;0.13;;;;;;;7.58;100.00;98243.81;5023029;28;20505;-69
2023/04/19 00:34:28;;;;;;;0.32;0.32;;;;;;;7.56;100.00;98240.47;5022039;28;20037;-69
2023/04/19 00:36:56;;;;;;;0.20;0.20;;;;;;;7.57;100.00;98235.00;5027275;28;20049;-71
2023/04/19 00:39:24;;;;;;;0.20;0.20;;;;;;;7.58;100.00;98235.84;5019772;28;20041;-69
2023/04/19 00:41:52;;;;;;;0.20;0.20;;;;;;;7.58;100.00;98239.31;5029389;28;20053;-71
2023/04/19 00:44:19;;;;;;;0.15;0.15;;;;;;;7.60;100.00;98228.53;5032641;28;20037;-71
2023/04/19 00:46:47;;;;;;;0.13;0.13;;;;;;;7.61;100.00;98224.88;5027234;28;20077;-69
2023/04/19 00:49:16;;;;;;;0.20;0.20;;;;;;;7.62;100.00;98232.69;5023858;28;20041;-70
2023/04/19 00:51:46;;;;;;;0.25;0.25;;;;;;;7.58;100.00;98219.91;5020758;28;20046;-69
2023/04/19 00:54:14;;;;;;;0.20;0.20;;;;;;;7.62;100.00;98227.38;5031780;28;20049;-70
2023/04/19 00:56:43;;;;;;;0.28;0.28;;;;;;;7.67;100.00;98225.09;5029000;28;20509;-70
2023/04/19 00:59:11;;;;;;;0.22;0.22;;;;;;;7.60;100.00;98224.03;5023545;28;20104;-70
2023/04/19 01:01:38;;;;;;;0.20;0.20;;;;;;;7.56;99.82;98216.56;5025573;28;20041;-70
2023/04/19 01:04:06;;;;;;;0.20;0.20;;;;;;;7.60;99.86;98216.09;5022117;28;20049;-70
2023/04/19 01:06:34;;;;;;;0.20;0.20;;;;;;;7.64;99.67;98212.13;5028379;28;20044;-73
2023/04/19 01:09:03;;;;;;;0.20;0.20;;;;;;;7.61;99.77;98214.25;5018986;28;20046;-73
2023/04/19 01:11:31;;;;;;;0.10;0.10;;;;;;;7.60;99.30;98213.44;5030799;28;20049;-70
2023/04/19 01:13:58;;;;;;;0.30;0.30;;;;;;;7.67;99.16;98209.16;5023239;28;20061;-72
2023/04/19 01:16:27;;;;;;;0.20;0.20;;;;;;;7.57;99.12;98212.94;5026869;28;20052;-70
2023/04/19 01:18:55;;;;;;;0.20;0.20;;;;;;;7.52;99.58;98205.44;5021314;28;20045;-70
2023/04/19 01:21:22;;;;;;;0.20;0.20;;;;;;;7.55;99.59;98209.59;5028406;28;20104;-70
2023/04/19 01:23:51;;;;;;;0.38;0.38;;;;;;;7.58;99.39;98211.94;5020832;28;20079;-70
2023/04/19 01:26:18;;;;;;;0.20;0.20;;;;;;;7.59;98.98;98210.91;5020785;28;20041;-72
2023/04/19 01:28:46;;;;;;;0.20;0.20;;;;;;;7.57;99.01;98207.63;5018263;28;20045;-71
2023/04/19 01:31:16;;;;;;;0.30;0.30;;;;;;;7.56;99.07;98206.78;5023612;28;20484;-71
2023/04/19 01:33:43;;;;;;;0.10;0.10;;;;;;;7.54;98.88;98202.63;5023188;28;20081;-70
2023/04/19 01:36:11;;;;;;;0.22;0.22;;;;;;;7.55;99.23;98206.94;5027161;28;20053;-70
2023/04/19 01:38:41;;;;;;;0.20;0.20;;;;;;;7.57;99.05;98199.66;5030344;28;20092;-71
2023/04/19 01:41:10;;;;;;;0.10;0.10;;;;;;;7.55;99.07;98194.50;5023499;28;20062;-71
2023/04/19 01:43:38;;;;;;;0.38;0.38;;;;;;;7.52;98.60;98200.13;5031669;28;20049;-71
2023/04/19 01:46:05;;;;;;;0.32;0.32;;;;;;;7.55;99.01;98198.97;5024931;28;20748;-71
2023/04/19 01:48:33;;;;;;;0.50;0.50;;;;;;;7.51;99.08;98198.44;5029261;28;20049;-71
2023/04/19 01:51:00;;;;;;;0.20;0.20;;;;;;;7.53;98.97;98185.84;5025934;28;20060;-71
2023/04/19 01:53:28;;;;;;;0.10;0.10;;;;;;;7.56;98.88;98188.19;5029754;28;20045;-70
2023/04/19 01:55:55;;;;;;;0.20;0.20;;;;;;;7.53;98.78;98192.97;5027832;28;20042;-70
2023/04/19 01:58:24;;;;;;;0.22;0.22;;;;;;;7.56;98.10;98190.84;5018618;28;20068;-70
2023/04/19 02:00:52;;;;;;;0.10;0.10;;;;;;;7.49;98.22;98184.50;5015033;28;20050;-70
2023/04/19 02:03:20;;;;;;;0.35;0.35;;;;;;;7.50;98.35;98186.16;5024261;28;21055;-70
2023/04/19 02:05:49;;;;;;;0.20;0.20;;;;;;;7.47;98.27;98181.19;5028803;28;20124;-71
2023/04/19 02:08:16;;;;;;;0.20;0.20;;;;;;;7.38;98.11;98172.34;5032043;28;20092;-70
2023/04/19 02:10:44;;;;;;;0.32;0.32;;;;;;;7.36;98.29;98173.50;5030923;28;20088;-70
2023/04/19 02:13:11;;;;;;;0.20;0.20;;;;;;;7.40;98.05;98168.69;5022308;28;20418;-70
2023/04/19 02:15:40;;;;;;;0.10;0.10;;;;;;;7.37;97.98;98167.22;5027892;28;20038;-71
2023/04/19 02:18:08;;;;;;;0.20;0.20;;;;;;;7.36;97.50;98170.84;5031747;28;20524;-72
2023/04/19 02:20:35;;;;;;;0.20;0.20;;;;;;;7.32;97.27;98172.16;5029440;28;20049;-70
2023/04/19 02:23:03;;;;;;;0.10;0.10;;;;;;;7.34;96.83;98170.19;5028170;28;20041;-70
2023/04/19 02:25:31;;;;;;;0.10;0.10;;;;;;;7.30;97.09;98168.81;5019085;28;20038;-70
2023/04/19 02:27:58;;;;;;;0.20;0.20;;;;;;;7.29;97.48;98168.00;5025942;28;20049;-72
2023/04/19 02:30:26;;;;;;;0.20;0.20;;;;;;;7.27;97.65;98169.13;5029523;28;20413;-70
2023/04/19 02:32:55;;;;;;;0.35;0.35;;;;;;;7.23;97.55;98162.50;5021521;28;20100;-70
2023/04/19 02:35:22;;;;;;;0.10;0.10;;;;;;;7.25;97.68;98164.00;5024853;28;20371;-71
2023/04/19 02:37:50;;;;;;;0.20;0.20;;;;;;;7.25;97.67;98165.84;5028505;28;20049;-70
2023/04/19 02:40:18;;;;;;;0.20;0.20;;;;;;;7.18;98.03;98165.63;5020907;28;20049;-70
2023/04/19 02:42:45;;;;;;;0.13;0.13;;;;;;;7.21;97.84;98164.47;5020013;28;20045;-70
2023/04/19 02:45:13;;;;;;;0.30;0.30;;;;;;;7.20;97.65;98163.63;5020324;28;20042;-70
2023/04/19 02:47:40;;;;;;;0.20;0.20;;;;;;;7.20;97.42;98161.00;5030044;28;20571;-70
2023/04/19 02:50:10;;;;;;;0.22;0.22;;;;;;;7.15;96.45;98165.97;5021038;28;20076;-73
2023/04/19 02:52:44;;;;;;;0.17;0.17;;;;;;;7.10;96.47;98147.00;5017831;28;20103;-70
2023/04/19 02:55:12;;;;;;;0.10;0.10;;;;;;;7.03;96.00;98156.59;5020881;28;20379;-70
2023/04/19 02:57:40;;;;;;;0.35;0.35;;;;;;;7.11;95.71;98161.09;5033064;28;20056;-70
2023/04/19 03:00:11;;;;;;;0.20;0.20;;;;;;;7.10;95.76;98148.81;5019355;28;20072;-70
2023/04/19 03:02:42;;;;;;;0.32;0.32;;;;;;;7.08;95.59;98148.16;5024100;28;20050;-70
2023/04/19 03:05:11;;;;;;;0.20;0.20;;;;;;;7.02;95.87;98151.44;5019106;28;20057;-70
2023/04/19 03:07:39;;;;;;;0.30;0.30;;;;;;;7.00;95.07;98152.44;5017277;28;20068;-70
2023/04/19 03:10:09;;;;;;;0.20;0.20;;;;;;;7.03;95.09;98140.69;5020666;28;20072;-70
2023/04/19 03:12:37;;;;;;;0.10;0.10;;;;;;;6.94;95.52;98142.47;5018062;28;20046;-70
2023/04/19 03:15:05;;;;;;;0.17;0.17;;;;;;;6.87;96.09;98141.41;5021695;28;20057;-70
2023/04/19 03:17:33;;;;;;;0.25;0.25;;;;;;;6.90;95.68;98141.09;5020842;28;20065;-70
2023/04/19 03:20:01;;;;;;;0.20;0.20;;;;;;;6.87;95.87;98136.09;5017667;28;20103;-70
2023/04/19 03:22:31;;;;;;;0.22;0.22;;;;;;;6.91;95.83;98139.28;5013925;28;20049;-70
2023/04/19 03:24:58;;;;;;;0.22;0.22;;;;;;;6.92;95.76;98138.31;5020583;28;20096;-70
2023/04/19 03:27:26;;;;;;;0.13;0.13;;;;;;;6.92;96.14;98139.13;5023585;28;20038;-70
2023/04/19 03:29:59;;;;;;;0.20;0.20;;;;;;;6.91;95.62;98126.84;5018468;28;20058;-70
2023/04/19 03:32:28;;;;;;;0.15;0.15;;;;;;;6.93;95.98;98132.00;5022521;28;20417;-69
2023/04/19 03:34:57;;;;;;;0.32;0.32;;;;;;;6.90;95.64;98125.19;5018780;28;20053;-70
2023/04/19 03:37:24;;;;;;;0.20;0.20;;;;;;;6.93;94.59;98130.19;5024851;28;20084;-70
2023/04/19 03:39:53;;;;;;;0.25;0.25;;;;;;;6.93;94.58;98126.69;5026331;28;20536;-70
2023/04/19 03:42:27;;;;;;;0.20;0.20;;;;;;;6.84;94.09;98125.84;5036722;28;20064;-70
2023/04/19 03:45:19;;;;;;;0.28;0.28;;;;;;;6.82;94.27;98122.50;5022035;28;20050;-70
2023/04/19 03:47:47;;;;;;;0.43;0.43;;;;;;;6.81;94.35;98118.19;5031077;28;20568;-70
2023/04/19 03:50:15;;;;;;;0.10;0.10;;;;;;;6.79;93.91;98117.50;5025671;28;20137;-70
2023/04/19 03:52:46;;;;;;;0.17;0.17;;;;;;;6.80;94.13;98118.34;5019534;28;20539;-70
2023/04/19 03:55:16;;;;;;;0.40;0.40;;;;;;;6.74;94.05;98124.28;5020726;28;20544;-70
2023/04/19 03:57:43;;;;;;;0.30;0.30;;;;;;;6.79;93.35;98117.50;5031992;28;20046;-70
2023/04/19 04:00:22;;;;;;;0.38;0.38;;;;;;;6.79;93.02;98111.38;5019375;28;20058;-70
2023/04/19 04:02:55;;;;;;;0.20;0.20;;;;;;;6.83;92.21;98112.72;5025716;28;20049;-70
2023/04/19 04:05:23;;;;;;;0.22;0.22;;;;;;;6.74;92.88;98121.63;5032243;28;20045;-70
2023/04/19 04:07:51;;;;;;;0.43;0.43;;;;;;;6.65;93.13;98118.06;5024276;28;20439;-70
2023/04/19 04:10:20;;;;;;;0.22;0.22;;;;;;;6.49;92.43;98120.63;5022984;28;20561;-70
2023/04/19 04:12:48;;;;;;;0.20;0.20;;;;;;;6.55;92.87;98115.53;5025248;28;20456;-70
2023/04/19 04:15:23;;;;;;;0.30;0.30;;;;;;;6.36;92.92;98126.34;5025148;28;20041;-72
2023/04/19 04:17:53;;;;;;;0.40;0.40;;;;;;;6.42;93.44;98122.25;5027927;28;20037;-70
2023/04/19 04:20:21;;;;;;;0.45;0.45;;;;;;;6.40;93.50;98121.56;5024814;28;20381;-70
2023/04/19 04:22:52;;;;;;;0.32;0.32;;;;;;;6.41;93.35;98118.78;5030240;28;20413;-70
2023/04/19 04:25:21;;;;;;;0.30;0.30;;;;;;;6.45;92.80;98122.75;5027272;28;20124;-70
2023/04/19 04:27:50;;;;;;;0.10;0.10;;;;;;;6.41;93.38;98124.06;5024539;28;20037;-70
2023/04/19 04:30:20;;;;;;;0.22;0.22;;;;;;;6.47;92.64;98127.91;5030794;28;20037;-70
2023/04/19 04:32:50;;;;;;;0.30;0.30;;;;;;;6.41;93.43;98120.59;5023532;28;20050;-69
2023/04/19 04:35:18;;;;;;;0.22;0.22;;;;;;;6.36;93.20;98128.16;5027013;28;20057;-70
2023/04/19 04:37:58;;;;;;;0.22;0.22;;;;;;;6.21;93.28;98128.75;5028721;28;20064;-69
2023/04/19 04:40:27;;;;;;;0.22;0.22;;;;;;;6.17;92.62;98127.38;5027372;28;20057;-70
2023/04/19 04:42:54;;;;;;;0.32;0.32;;;;;;;6.23;92.31;98132.03;5034470;28;20045;-70
2023/04/19 04:45:22;;;;;;;0.20;0.20;;;;;;;6.06;92.86;98127.63;5023172;28;20069;-70
2023/04/19 04:47:50;;;;;;;0.35;0.35;;;;;;;6.12;92.95;98127.00;5024671;28;20046;-69
2023/04/19 04:50:18;;;;;;;0.30;0.30;;;;;;;6.09;92.87;98132.63;5027353;28;20128;-70
2023/04/19 04:52:48;;;;;;;0.20;0.20;;;;;;;5.96;92.85;98129.50;5025973;28;20532;-69
2023/04/19 04:55:23;;;;;;;0.32;0.32;;;;;;;5.95;93.02;98127.84;5013186;28;20350;-69
2023/04/19 04:57:52;;;;;;;0.45;0.45;;;;;;;5.92;92.68;98133.44;5037393;28;20071;-69
2023/04/19 05:00:26;;;;;;;0.40;0.40;;;;;;;5.97;93.12;98130.34;5020981;28;20099;-69
2023/04/19 05:03:00;;;;;;;0.65;0.30;;;;;;;5.97;93.07;98120.59;5024960;28;20045;-69
2023/04/19 05:05:30;;;;;;;0.28;0.28;;;;;;;6.04;93.37;98120.78;5015994;28;20045;-70
2023/04/19 05:07:58;;;;;;;0.22;0.22;;;;;;;6.00;93.02;98128.22;5035641;28;20041;-70
2023/04/19 05:10:25;;;;;;;0.20;0.20;;;;;;;6.02;93.17;98123.59;5032093;28;20045;-69
2023/04/19 05:12:54;;;;;;;0.20;0.15;;;;;;;6.03;92.76;98121.78;5028460;28;20041;-71
2023/04/19 05:15:22;;;;;;;0.28;0.28;;;;;;;6.01;93.07;98121.94;5024684;28;20078;-68
2023/04/19 05:17:53;;;;;;;0.20;0.20;;;;;;;5.97;93.08;98122.41;5028048;28;20132;-69
2023/04/19 05:20:22;;;;;;;0.30;0.30;;;;;;;5.95;93.14;98122.53;5018898;28;20095;-71
2023/04/19 05:22:58;;;;;;;0.40;0.40;;;;;;;5.95;93.35;98124.38;5020186;28;20145;-72
2023/04/19 05:25:26;;;;;;;0.22;0.22;;;;;;;5.85;93.76;98127.91;5027174;28;20570;-69
2023/04/19 05:27:55;;;;;;;0.30;0.30;;;;;;;5.92;93.79;98127.34;5025926;28;20073;-72
2023/04/19 05:30:22;;;;;;;0.30;0.30;;;;;;;5.97;92.99;98115.28;5039120;28;20049;-71
2023/04/19 05:32:51;;;;;;;0.45;0.45;;;;;;;5.79;93.04;98119.72;5024974;28;20051;-72
2023/04/19 05:35:19;;;;;;;0.20;0.20;;;;;;;5.78;92.72;98118.91;5019626;28;20041;-69
2023/04/19 05:37:47;;;;;;;0.28;0.28;;;;;;;5.64;93.46;98123.88;5030000;28;20500;-68
2023/04/19 05:40:14;;;;;;;0.43;0.43;;;;;;;5.62;93.77;98115.25;5023908;28;20045;-69
2023/04/19 05:42:42;;;;;;;0.30;0.30;;;;;;;5.58;93.70;98120.03;5031229;28;20053;-71
2023/04/19 05:45:14;;;;;;;0.20;0.20;;;;;;;5.53;94.36;98123.13;5016016;28;20053;-68
2023/04/19 05:47:42;;;;;;;0.20;0.20;;;;;;;5.52;94.35;98128.56;5024770;28;20049;-72
2023/04/19 05:50:36;;;;;;;0.10;0.10;;;;;;;5.51;94.46;98118.94;5032552;28;20050;-71
2023/04/19 05:53:30;;;;;;;0.40;0.40;;;;;;;5.38;94.96;98123.78;5023106;28;20054;-71
2023/04/19 05:55:58;;;;;;;0.20;0.20;;;;;;;5.09;95.56;98116.81;5018839;28;20099;-71
2023/04/19 05:58:25;;;;;;;0.10;0.10;;;;;;;5.12;95.73;98116.53;5029140;28;20516;-71
2023/04/19 06:00:54;;;;;;;0.32;0.32;;;;;;;5.14;95.68;98113.75;5031311;28;20037;-71
2023/04/19 06:03:23;;;;;;;0.20;0.20;;;;;;;5.18;95.94;98112.50;5037514;28;20575;-71
2023/04/19 06:05:56;;;;;;;0.40;0.40;;;;;;;5.10;96.22;98121.13;5023114;28;20509;-71
2023/04/19 06:08:24;;;;;;;0.30;0.30;;;;;;;5.09;95.94;98116.81;5034230;28;20037;-71
2023/04/19 06:10:55;;;;;;;0.40;0.40;;;;;;;5.06;95.62;98118.94;5029683;28;20053;-71
2023/04/19 06:13:23;;;;;;;0.30;0.30;;;;;;;5.12;95.75;98126.28;5028236;28;20042;-71
2023/04/19 06:15:52;;;;;;;0.30;0.30;;;;;;;5.00;96.33;98122.16;5016736;28;20509;-71
2023/04/19 06:18:21;;;;;;;0.20;0.20;;;;;;;5.00;96.15;98125.66;5039435;28;20033;-71
2023/04/19 06:20:48;;;;;;;0.30;0.30;;;;;;;5.03;96.14;98119.25;5034850;28;20045;-71
2023/04/19 06:23:17;;;;;;;0.20;0.20;;;;;;;4.93;96.58;98123.75;5032089;28;20092;-71
2023/04/19 06:25:47;;;;;;;0.22;0.22;;;;;;;5.00;95.58;98124.81;5030686;28;20453;-71
2023/04/19 06:28:14;;;;;;;0.20;0.20;;;;;;;4.85;95.05;98126.28;5024877;28;20091;-71
2023/04/19 06:30:42;;;;;;;0.10;0.10;;;;;;;4.85;95.89;98127.13;5030963;28;20068;-71
2023/04/19 06:33:10;;;;;;;0.22;0.22;;;;;;;4.90;95.73;98130.16;5023981;28;20049;-71
2023/04/19 06:35:38;;;;;;;0.20;0.20;;;;;;;4.95;94.49;98121.78;5024530;28;20463;-71
2023/04/19 06:38:06;;;;;;;0.32;0.32;;;;;;;4.89;94.56;98122.34;5027379;28;20475;-71
2023/04/19 06:40:34;;;;;;;0.38;0.38;;;;;;;4.87;93.11;98126.97;5023830;28;20045;-71
2023/04/19 06:43:01;;;;;;;0.10;0.10;;;;;;;4.68;93.97;98130.50;5027300;28;20073;-71
2023/04/19 06:45:32;;;;;;;0.10;0.10;;;;;;;4.68;93.76;98126.06;5026371;28;20046;-71
2023/04/19 06:48:00;;;;;;;0.30;0.30;;;;;;;4.64;94.08;98132.63;5030403;28;20072;-71
2023/04/19 06:50:28;;;;;;;0.22;0.22;;;;;;;4.78;93.26;98136.59;5024070;28;20090;-71
2023/04/19 06:52:57;;;;;;;0.10;0.10;;;;;;;4.73;92.90;98131.75;5031342;28;20059;-71
2023/04/19 06:55:25;;;;;;;0.20;0.20;;;;;;;4.73;93.48;98134.41;5027081;28;20053;-71
2023/04/19 06:57:52;;;;;;;0.25;0.25;;;;;;;4.82;93.24;98139.78;5023529;28;20520;-71
2023/04/19 07:00:20;;;;;;;0.20;0.20;;;;;;;4.79;92.98;98135.63;5027601;28;20045;-70
2023/04/19 07:02:49;;;;;;;0.22;0.22;;;;;;;4.94;92.65;98136.00;5028531;28;20069;-70
2023/04/19 07:05:16;;;;;;;0.20;0.20;;;;;;;4.73;92.20;98136.22;5027439;28;20046;-71
2023/04/19 07:07:44;;;;;;;0.35;0.35;;;;;;;4.76;92.28;98133.28;5025909;28;20409;-71
2023/04/19 07:10:13;;;;;;;0.10;0.10;;;;;;;4.85;91.71;98134.22;5025297;28;20049;-70
2023/04/19 07:12:40;;;;;;;0.10;0.10;;;;;;;4.90;91.16;98130.16;5029097;28;20092;-70
2023/04/19 07:15:09;;;;;;;0.20;0.20;;;;;;;4.74;90.28;98127.31;5028672;28;20448;-71
2023/04/19 07:17:36;;;;;;;0.10;0.10;;;;;;;4.74;90.04;98125.50;5031589;28;20110;-70
2023/04/19 07:20:05;;;;;;;0.22;0.22;;;;;;;4.65;90.81;98118.44;5036378;28;20132;-71
2023/04/19 07:22:33;;;;;;;0.38;0.38;;;;;;;4.64;90.38;98135.28;5031052;28;20041;-70
2023/04/19 07:25:00;;;;;;;0.30;0.30;;;;;;;4.51;88.64;98126.81;5032947;28;20042;-70
2023/04/19 07:27:29;;;;;;;0.20;0.20;;;;;;;4.51;88.10;98125.97;5029639;28;20521;-72
2023/04/19 07:29:57;;;;;;;0.22;0.22;;;;;;;4.26;87.56;98122.13;5039172;28;20072;-70
2023/04/19 07:32:24;;;;;;;0.10;0.10;;;;;;;4.29;88.91;98112.13;5032196;28;20045;-70
2023/04/19 07:34:52;;;;;;;0.20;0.20;;;;;;;4.28;89.51;98122.81;5035851;28;20072;-70
2023/04/19 07:37:20;;;;;;;0.28;0.28;;;;;;;4.26;89.42;98119.50;5025587;28;20472;-70
2023/04/19 07:39:47;;;;;;;0.50;0.50;;;;;;;4.36;89.37;98113.22;5030530;28;20049;-70
2023/04/19 07:42:15;;;;;;;0.20;0.20;;;;;;;4.54;89.58;98109.84;5025852;28;20055;-70
2023/04/19 07:44:44;;;;;;;0.17;0.17;;;;;;;4.62;89.34;98117.88;5029651;28;20501;-70
2023/04/19 07:47:12;;;;;;;0.20;0.20;;;;;;;4.88;89.95;98110.13;5031535;28;20045;-70
2023/04/19 07:49:39;;;;;;;0.20;0.20;;;;;;;4.99;88.37;98120.50;5029013;28;20444;-70
2023/04/19 07:52:07;;;;;;;0.20;0.20;;;;;;;5.10;88.38;98102.63;5030694;28;20049;-72
2023/04/19 07:54:34;;;;;;;0.20;0.20;;;;;;;5.21;87.64;98109.53;5033613;28;20042;-71
2023/04/19 07:57:02;;;;;;;0.20;0.20;;;;;;;5.30;86.78;98113.91;5023873;28;20107;-71
2023/04/19 07:59:32;;;;;;;0.20;0.20;;;;;;;5.39;86.53;98120.16;5026429;28;20401;-71
2023/04/19 08:02:01;;;;;;;0.28;0.28;;;;;;;5.48;85.50;98114.81;5027388;28;20049;-71
2023/04/19 08:04:28;;;;;;;0.20;0.20;;;;;;;5.53;84.80;98114.34;5040014;28;20064;-71
2023/04/19 08:06:56;;;;;;;0.30;0.30;;;;;;;5.45;84.18;98122.19;5027755;28;20382;-71
2023/04/19 08:09:24;;;;;;;0.10;0.10;;;;;;;5.54;84.29;98108.91;5024950;28;20045;-71
2023/04/19 08:11:52;;;;;;;0.15;0.15;;;;;;;5.63;84.98;98120.41;5027498;28;20476;-71
2023/04/19 08:14:21;;;;;;;0.45;0.45;;;;;;;5.63;84.45;98112.44;5030072;28;20038;-71
2023/04/19 08:17:03;;;;;;;0.20;0.20;;;;;;;5.72;82.92;98110.72;5027830;28;20045;-72
2023/04/19 08:19:33;;;;;;;0.10;0.10;;;;;;;5.71;82.71;98104.56;5033204;28;20104;-72
2023/04/19 08:22:03;;;;;;;0.28;0.28;;;;;;;5.67;82.80;98107.69;5034797;28;20049;-71
2023/04/19 08:24:31;;;;;;;0.20;0.20;;;;;;;5.74;81.77;98101.63;5023749;28;20041;-71
2023/04/19 08:26:58;;;;;;;0.20;0.20;;;;;;;5.93;81.45;98095.38;5028050;28;20053;-71
2023/04/19 08:29:26;;;;;;;0.32;0.32;;;;;;;5.89;79.94;98101.97;5024782;28;20121;-71
2023/04/19 08:31:54;;;;;;;0.20;0.20;;;;;;;6.01;78.91;98098.09;5026998;28;20497;-71
2023/04/19 08:34:23;;;;;;;0.28;0.28;;;;;;;6.18;80.36;98097.25;5024247;28;20515;-71
2023/04/19 08:36:50;;;;;;;0.22;0.22;;;;;;;6.29;76.71;98090.03;5032221;28;20045;-71
2023/04/19 08:39:31;;;;;;;0.32;0.32;;;;;;;6.33;75.35;98089.56;5025785;28;20049;-71
2023/04/19 08:42:03;;;;;;;0.40;0.40;;;;;;;6.38;74.08;98079.31;5031484;28;20375;-71
2023/04/19 08:44:37;;;;;;;0.32;0.32;;;;;;;6.35;74.46;98082.25;5028466;28;20066;-71
2023/04/19 08:47:20;;;;;;;0.13;0.13;;;;;;;6.66;72.68;98079.97;5026909;28;20455;-71
2023/04/19 08:50:00;;;;;;;0.15;0.15;;;;;;;6.92;69.30;98078.09;5026502;28;20045;-71
2023/04/19 08:52:43;;;;;;;0.13;0.13;;;;;;;7.15;68.53;98075.72;5020281;28;20064;-71
2023/04/19 08:55:25;;;;;;;0.45;0.45;;;;;;;7.31;67.43;98070.44;5023053;28;20065;-71
2023/04/19 08:57:53;;;;;;;0.10;0.10;;;;;;;7.54;66.31;98070.66;5030676;28;20439;-71
2023/04/19 09:00:21;;;;;;;0.10;0.10;;;;;;;7.71;63.60;98067.00;5029003;28;20092;-71
2023/04/19 09:02:50;;;;;;;0.28;0.28;;;;;;;7.95;62.76;98070.69;5029941;28;20049;-71
2023/04/19 09:05:20;;;;;;;0.22;0.22;;;;;;;7.95;62.28;98076.00;5030016;28;20108;-71
2023/04/19 09:07:48;;;;;;;0.20;0.20;;;;;;;7.97;61.74;98060.72;5029436;28;20049;-71
2023/04/19 09:10:17;;;;;;;0.22;0.22;;;;;;;7.93;58.90;98070.84;5031596;28;20053;-70
2023/04/19 09:13:00;;;;;;;0.30;0.30;;;;;;;7.73;58.72;98070.34;5031767;28;20124;-71
2023/04/19 09:15:36;;;;;;;0.28;0.28;;;;;;;7.72;59.46;98071.34;5024360;28;20095;-71
2023/04/19 09:18:05;;;;;;;0.22;0.22;;;;;;;7.96;60.83;98067.84;5032015;28;20046;-70
2023/04/19 09:20:38;;;;;;;0.20;0.20;;;;;;;8.10;58.18;98061.84;5031886;28;20038;-71
2023/04/19 09:23:06;;;;;;;0.28;0.28;;;;;;;8.07;56.40;98059.56;5027418;28;20071;-71
2023/04/19 09:25:34;;;;;;;0.40;0.40;;;;;;;8.31;56.04;98056.03;5031734;28;20563;-70
2023/04/19 09:28:21;;;;;;;0.20;0.20;;;;;;;8.27;57.58;98054.72;5029970;28;20124;-71
2023/04/19 09:30:50;;;;;;;0.10;0.10;;;;;;;8.36;57.72;98050.22;5031518;28;20508;-71
2023/04/19 09:33:34;;;;;;;0.32;0.32;;;;;;;8.18;56.77;98042.44;5029124;28;20046;-71
2023/04/19 09:36:03;;;;;;;0.13;0.13;;;;;;;8.17;57.22;98030.13;5030873;28;20087;-71
2023/04/19 09:38:31;;;;;;;0.22;0.22;;;;;;;8.39;58.70;98034.78;5027993;28;20134;-71
2023/04/19 09:41:06;;;;;;;0.32;0.32;;;;;;;8.44;54.35;98031.59;5030575;28;20401;-71
2023/04/19 09:43:34;;;;;;;0.10;0.10;;;;;;;8.44;54.78;98028.94;5027260;28;20100;-71
2023/04/19 09:46:05;;;;;;;0.13;0.13;;;;;;;8.34;55.50;98026.47;5021311;28;20084;-71
2023/04/19 09:48:32;;;;;;;0.20;0.20;;;;;;;8.40;54.98;98017.00;5026391;28;20040;-71
2023/04/19 09:51:01;;;;;;;0.22;0.22;;;;;;;8.42;55.25;98015.78;5025535;28;20128;-71
2023/04/19 09:53:39;;;;;;;0.10;0.10;;;;;;;8.65;54.29;98018.56;5031279;28;20045;-71
2023/04/19 09:56:07;;;;;;;0.15;0.15;;;;;;;8.56;52.75;98016.09;5024529;28;20053;-71
2023/04/19 09:58:35;;;;;;;0.10;0.10;;;;;;;8.60;53.41;98012.09;5030374;28;20045;-71
2023/04/19 10:01:17;;;;;;;0.20;0.20;;;;;;;8.66;53.17;98016.72;5026394;28;20501;-71
2023/04/19 10:03:47;;;;;;;0.10;0.10;;;;;;;8.73;51.92;98005.22;5029397;28;20132;-71
2023/04/19 10:06:16;;;;;;;0.45;0.45;;;;;;;8.89;51.87;98008.81;5025969;28;20124;-71
2023/04/19 10:09:05;;;;;;;0.30;0.30;;;;;;;8.87;51.74;98006.31;5027909;28;20476;-70
2023/04/19 10:11:37;;;;;;;0.22;0.22;;;;;;;8.71;51.27;97995.75;5026921;28;20492;-71
2023/04/19 10:14:06;;;;;;;0.22;0.22;;;;;;;8.66;51.29;98014.06;5029516;28;20052;-71
2023/04/19 10:16:34;;;;;;;0.28;0.28;;;;;;;8.91;52.16;97988.19;5025468;28;20045;-71
2023/04/19 10:19:03;;;;;;;0.10;0.10;;;;;;;9.19;50.67;97984.84;5029469;28;20497;-71
2023/04/19 10:21:31;;;;;;;0.10;0.10;;;;;;;9.05;51.10;97990.09;5028138;28;20061;-71
2023/04/19 10:23:59;;;;;;;0.10;0.10;;;;;;;9.33;50.32;97991.25;5030137;28;20045;-71
2023/04/19 10:26:28;;;;;;;0.10;0.10;;;;;;;9.30;48.79;97982.78;5026840;28;20525;-71
2023/04/19 10:28:56;;;;;;;0.10;0.10;;;;;;;9.39;49.49;97982.56;5029377;28;20041;-72
2023/04/19 10:31:25;;;;;;;0.22;0.22;;;;;;;9.67;49.75;97974.00;5027067;28;20041;-71
2023/04/19 10:33:53;;;;;;;0.25;0.25;;;;;;;9.96;48.45;97983.94;5027643;28;20045;-70
2023/04/19 10:36:23;;;;;;;0.30;0.30;;;;;;;10.09;47.83;97978.78;5022578;28;20115;-71
2023/04/19 10:38:52;;;;;;;0.20;0.20;;;;;;;9.80;48.44;97968.91;5025888;28;20057;-71
2023/04/19 10:41:20;;;;;;;0.17;0.17;;;;;;;9.78;48.59;97974.41;5029698;28;20045;-71
2023/04/19 10:44:09;;;;;;;0.20;0.20;;;;;;;9.53;48.77;97968.47;5026889;28;20455;-70
2023/04/19 10:46:39;;;;;;;0.17;0.17;;;;;;;9.79;49.07;97969.91;5024672;28;20048;-70
2023/04/19 10:49:08;;;;;;;0.22;0.22;;;;;;;10.13;48.51;97964.09;5028094;28;20065;-70
2023/04/19 10:51:37;;;;;;;0.32;0.32;;;;;;;10.30;48.15;97952.25;5028540;28;20362;-70
2023/04/19 10:54:05;;;;;;;0.40;0.40;;;;;;;10.35;47.99;97949.03;5034258;28;20112;-71
2023/04/19 10:57:01;;;;;;;0.22;0.22;;;;;;;10.53;49.01;97944.97;5039073;28;20544;-71
2023/04/19 10:59:31;;;;;;;0.13;0.13;;;;;;;10.95;48.55;97940.75;4993340;28;20064;-71
2023/04/19 11:02:00;;;;;;;0.32;0.32;;;;;;;10.96;47.23;97951.25;5034046;28;20041;-70
2023/04/19 11:05:00;;;;;;;0.22;0.22;;;;;;;11.05;47.67;97949.28;5034613;28;20061;-71
2023/04/19 11:07:28;;;;;;;0.25;0.25;;;;;;;10.92;48.51;97946.47;5029539;28;20085;-70
2023/04/19 11:09:55;;;;;;;0.22;0.22;;;;;;;10.64;48.58;97947.16;5036054;28;20041;-71
2023/04/19 11:12:23;;;;;;;0.22;0.22;;;;;;;10.37;49.19;97934.50;5032627;28;20559;-70
2023/04/19 11:14:54;;;;;;;0.20;0.20;;;;;;;9.91;48.83;97929.28;5030014;28;20561;-70
2023/04/19 11:17:24;;;;;;;0.22;0.22;;;;;;;10.20;50.22;97935.69;5026347;28;20053;-70
2023/04/19 11:19:56;;;;;;;0.13;0.13;;;;;;;10.26;49.71;97933.13;5034129;28;20053;-70
2023/04/19 11:22:31;;;;;;;0.22;0.22;;;;;;;10.43;49.09;97933.75;5031372;28;20447;-71
2023/04/19 11:25:05;;;;;;;0.35;0.35;;;;;;;10.30;47.70;97931.72;5041819;28;20041;-70
2023/04/19 11:27:33;;;;;;;0.25;0.25;;;;;;;10.09;47.21;97920.09;5035858;28;20125;-70
2023/04/19 11:30:07;;;;;;;0.13;0.13;;;;;;;10.12;48.46;97917.09;5036770;28;20065;-70
2023/04/19 11:32:35;;;;;;;0.30;0.30;;;;;;;10.03;47.50;97921.69;5034479;28;20099;-70
2023/04/19 11:35:06;;;;;;;0.13;0.13;;;;;;;10.20;48.01;97919.69;5032244;28;20056;-70
2023/04/19 11:37:34;;;;;;;0.40;0.40;;;;;;;10.33;48.47;97911.88;5029383;28;20144;-70
2023/04/19 11:40:05;;;;;;;0.38;0.38;;;;;;;10.47;48.93;97903.03;5036757;28;20116;-70
2023/04/19 11:42:33;;;;;;;0.22;0.22;;;;;;;10.68;48.28;97906.75;5036561;28;20069;-70
2023/04/19 11:45:00;;;;;;;0.20;0.20;;;;;;;10.89;47.37;97912.97;5033861;28;20464;-70
2023/04/19 11:47:29;;;;;;;0.22;0.22;;;;;;;10.52;47.34;97908.63;5035133;28;20085;-70
2023/04/19 11:49:57;;;;;;;0.40;0.40;;;;;;;10.40;47.92;97898.59;5028525;28;20045;-70
2023/04/19 11:52:26;;;;;;;0.40;0.40;;;;;;;10.58;47.74;97889.22;5026042;28;20505;-71
2023/04/19 11:54:54;;;;;;;0.40;0.40;;;;;;;11.02;47.27;97889.06;5035841;28;20063;-70